Hiattville, Kansas
Current Conditions -  °F | °C
As of 8:15 PM on Saturday 22 Nov 2014 (Local Time) from KPTS Reporting Station
Clear Clear  
Wind Chill: 54°   Ceiling: Unl
Heat Index: 54°   Visibility: 10mi
Dew Point: 54°   Wind: 9mph
Humidity: 100%   Direction: 170°S
Pressure: 29.79"   Gusts: NA
Location:  37.8381°N, 94.721°W
Report Text: KPTS 230215Z AUTO 17008KT 10SM CLR 12/12 A2979 RMK AO2 T01200120
Loading
Personal Weather Stations






























Interactive Weather Map New forecast layout! Learn more

10-Day Weather Forecast

Advertisements
Track Severe Weather on mobile